Date,TemperatureHighF,TemperatureAvgF,TemperatureLowF,DewpointHighF,DewpointAvgF,DewpointLowF,HumidityHigh,HumidityAvg,HumidityLow,PressureMaxIn,PressureMinIn,WindSpeedMaxMPH,WindSpeedAvgMPH,GustSpeedMaxMPH,PrecipitationSumIn
2013-1-1,38.9,35.8,27.0,28.6,24.0,11.3,76,62,50,30.01,29.83,20,6,24,0.00
2013-1-2,32.7,26.0,22.4,15.1,12.0,8.9,62,55,45,30.18,29.99,21,5,21,0.00
2013-1-3,32.2,27.1,22.6,17.5,14.8,13.4,69,59,50,30.20,30.07,12,3,17,0.00
2013-1-4,36.2,32.7,27.6,21.5,19.8,17.2,66,59,53,30.09,29.96,27,7,31,0.00
2013-1-5,43.0,34.4,28.8,22.8,20.0,17.0,68,56,43,30.29,30.02,18,4,21,0.00
2013-1-6,46.1,37.7,30.8,30.9,26.6,21.4,87,65,47,30.22,29.96,16,4,20,0.00
2013-1-7,45.2,36.9,26.3,29.3,24.3,19.4,75,61,42,30.40,30.05,22,2,22,0.00
2013-1-8,48.6,35.8,25.1,32.6,26.4,19.0,83,69,50,30.42,30.33,15,2,16,0.00
2013-1-9,48.5,39.3,28.1,37.4,31.1,23.8,85,73,59,30.38,30.13,17,3,20,0.00
2013-1-10,48.6,41.5,35.6,31.9,25.8,23.5,62,54,38,30.53,30.24,18,4,21,0.00
2013-1-11,45.6,40.4,33.6,43.1,32.4,22.8,93,74,57,30.53,30.07,12,2,13,0.53
2013-1-12,48.3,45.2,42.1,44.1,42.5,40.4,94,90,85,30.16,30.06,7,1,8,0.01
2013-1-13,48.2,45.4,42.9,46.8,44.0,41.5,96,94,91,30.15,29.99,6,1,7,0.01
2013-1-14,56.1,49.2,38.6,53.6,42.6,26.5,96,80,45,30.28,29.88,15,3,17,0.08
2013-1-15,38.7,36.6,34.2,33.3,28.2,25.1,84,72,61,30.34,30.20,11,2,11,0.16
2013-1-16,35.7,33.3,31.7,32.7,30.6,28.1,92,90,81,30.20,29.80,15,3,15,0.82
2013-1-17,42.3,37.9,35.2,32.5,28.8,23.2,86,70,55,30.08,29.90,17,4,18,0.00
2013-1-18,35.2,28.8,24.6,23.8,12.6,4.9,65,51,35,30.48,29.98,22,5,24,0.00
2013-1-19,51.0,38.8,24.7,28.2,22.8,10.6,69,53,38,30.40,29.92,22,6,26,0.00
2013-1-20,53.5,42.2,29.3,30.7,22.3,10.5,67,47,25,30.04,29.69,40,10,44,0.00
2013-1-21,30.5,27.5,21.2,15.4,10.5,7.0,62,49,41,30.09,29.84,18,3,18,0.00
2013-1-22,25.8,18.2,12.2,9.3,-1.4,-7.4,52,42,31,30.21,29.84,33,12,35,0.00
2013-1-23,18.7,13.0,8.9,1.7,-3.6,-8.6,68,47,38,30.26,30.17,23,7,26,0.00
2013-1-24,23.5,15.2,6.1,5.4,-0.3,-4.9,79,53,31,30.42,30.12,26,6,28,0.00
2013-1-25,22.4,15.8,10.9,12.9,3.1,-5.1,82,58,41,30.43,30.06,15,3,17,0.00
2013-1-26,27.1,18.5,9.6,9.3,6.7,4.6,82,62,42,30.39,30.05,19,5,22,0.00
2013-1-27,34.4,23.9,12.0,13.1,9.3,3.7,70,54,38,30.53,30.38,18,3,19,0.00
2013-1-28,33.8,29.2,21.2,31.2,23.0,11.3,90,78,62,30.49,30.00,10,2,11,0.14
2013-1-29,53.5,41.4,33.7,43.1,36.8,31.1,90,84,65,30.13,30.00,11,2,12,0.00
2013-1-30,67.5,52.9,41.0,59.8,49.0,38.7,95,87,74,30.06,29.33,22,3,26,0.01
2013-1-31,61.7,44.1,27.9,57.9,30.1,9.5,88,59,39,29.80,29.03,48,15,54,1.25